createdAt,value
2023-05-01T00:04:35.174Z,71.49
2023-05-01T00:09:38.391Z,72.08
2023-05-01T00:14:42.130Z,72.37
2023-05-01T00:19:45.326Z,72.67
2023-05-01T00:24:49.358Z,72.05
2023-05-01T00:29:52.671Z,71.76
2023-05-01T00:34:57.846Z,71.84
2023-05-01T00:40:01.253Z,72.11
2023-05-01T00:45:04.801Z,72.48
2023-05-01T00:50:08.720Z,72.11
2023-05-01T00:55:12.129Z,71.90
2023-05-01T01:00:17.067Z,72.72
2023-05-01T01:05:24.728Z,72.72
2023-05-01T01:10:30.073Z,72.40
2023-05-01T01:15:38.573Z,72.80
2023-05-01T01:20:49.171Z,72.50
2023-05-01T01:26:10.915Z,70.91
2023-05-01T01:31:37.082Z,70.73
2023-05-01T01:36:58.818Z,70.18
2023-05-01T01:42:06.764Z,69.13
2023-05-01T01:47:14.145Z,69.43
2023-05-01T01:52:19.081Z,69.93
2023-05-01T01:57:24.040Z,70.63
2023-05-01T02:02:29.611Z,70.94
2023-05-01T02:07:33.300Z,70.90
2023-05-01T02:12:37.904Z,70.85
2023-05-01T02:17:41.924Z,70.43
2023-05-01T02:22:46.565Z,70.11
2023-05-01T02:28:10.861Z,70.33
2023-05-01T02:33:14.064Z,70.73
2023-05-01T02:38:17.685Z,70.70
2023-05-01T02:43:23.074Z,71.42
2023-05-01T02:48:28.710Z,71.31
2023-05-01T02:53:33.325Z,71.38
2023-05-01T02:58:37.249Z,71.64
2023-05-01T03:03:40.195Z,72.12
2023-05-01T03:08:43.403Z,71.74
2023-05-01T03:13:47.734Z,71.51
2023-05-01T03:18:50.742Z,72.05
2023-05-01T03:23:54.156Z,72.80
2023-05-01T03:28:57.265Z,72.25
2023-05-01T03:34:00.166Z,71.65
2023-05-01T03:39:04.937Z,69.84
2023-05-01T03:44:07.808Z,66.35
2023-05-01T03:49:10.721Z,63.71
2023-05-01T03:54:13.739Z,60.81
2023-05-01T03:59:16.737Z,57.57
2023-05-01T04:04:19.659Z,55.66
2023-05-01T04:09:22.647Z,54.69
2023-05-01T04:14:25.961Z,52.96
2023-05-01T04:19:28.883Z,51.83
2023-05-01T04:24:31.869Z,48.50
2023-05-01T04:29:34.774Z,46.41
2023-05-01T04:34:38.288Z,44.77
2023-05-01T04:39:41.399Z,41.89
2023-05-01T04:44:45.873Z,36.37
2023-05-01T04:49:48.736Z,37.54
2023-05-01T04:54:51.645Z,34.68
2023-05-01T04:59:54.788Z,33.99
2023-05-01T05:04:57.964Z,33.43
2023-05-01T05:10:00.870Z,32.95
2023-05-01T05:15:03.885Z,32.79
2023-05-01T05:20:07.821Z,31.66
2023-05-01T05:25:10.913Z,30.71
2023-05-01T05:30:14.142Z,29.39
2023-05-01T05:35:17.238Z,28.43
2023-05-01T05:40:20.546Z,27.97
2023-05-01T05:45:23.961Z,27.39
2023-05-01T05:50:26.971Z,26.62
2023-05-01T05:55:29.988Z,26.39
2023-05-01T06:00:33.315Z,25.78
2023-05-01T06:05:36.431Z,25.13
2023-05-01T06:10:43.561Z,24.77
2023-05-01T06:15:47.151Z,24.27
2023-05-01T06:20:50.251Z,23.87
2023-05-01T06:25:53.139Z,23.91
2023-05-01T06:30:56.379Z,23.79
2023-05-01T06:36:00.248Z,23.73
2023-05-01T06:41:05.667Z,23.47
2023-05-01T06:46:08.648Z,22.95
2023-05-01T06:51:15.047Z,22.57
2023-05-01T06:56:18.038Z,22.75
2023-05-01T07:01:21.369Z,22.53
2023-05-01T07:06:24.487Z,22.26
2023-05-01T07:11:27.880Z,22.14
2023-05-01T07:16:30.929Z,22.43
2023-05-01T07:21:33.991Z,22.02
2023-05-01T07:26:37.817Z,22.23
2023-05-01T07:31:42.155Z,21.93
2023-05-01T07:36:45.363Z,21.85
2023-05-01T07:41:48.474Z,21.86
2023-05-01T07:46:51.690Z,22.31
2023-05-01T07:51:55.896Z,21.93
2023-05-01T07:56:58.923Z,22.47
2023-05-01T08:02:02.184Z,22.97
2023-05-01T08:07:05.252Z,22.67
2023-05-01T08:12:08.356Z,22.75
2023-05-01T08:17:11.569Z,22.85
2023-05-01T08:22:14.573Z,23.25
2023-05-01T08:27:18.092Z,23.31
2023-05-01T08:32:21.820Z,22.97
2023-05-01T08:37:24.931Z,23.13
2023-05-01T08:42:29.878Z,23.42
2023-05-01T08:47:39.722Z,23.73
2023-05-01T08:52:44.056Z,25.80
2023-05-01T08:57:48.725Z,28.54
2023-05-01T09:02:52.339Z,30.60
2023-05-01T09:07:55.451Z,32.57
2023-05-01T09:13:04.014Z,33.90
2023-05-01T09:18:09.271Z,34.89
2023-05-01T09:23:12.355Z,35.24
2023-05-01T09:28:16.046Z,36.39
2023-05-01T09:33:19.095Z,36.13
2023-05-01T09:38:24.675Z,36.83
2023-05-01T09:43:29.760Z,37.09
2023-05-01T09:48:35.690Z,37.37
2023-05-01T09:53:40.944Z,37.25
2023-05-01T09:58:44.770Z,36.62
2023-05-01T10:03:54.478Z,36.81
2023-05-01T10:08:58.050Z,37.07
2023-05-01T10:14:11.332Z,36.82
2023-05-01T10:19:17.000Z,36.52
2023-05-01T10:24:20.489Z,36.50
2023-05-01T10:29:24.732Z,36.47
2023-05-01T10:34:28.848Z,36.38
2023-05-01T10:39:33.109Z,35.78
2023-05-01T10:44:36.306Z,36.32
2023-05-01T10:50:09.005Z,36.22
2023-05-01T10:55:34.865Z,35.45
2023-05-01T11:00:37.848Z,33.93
2023-05-01T11:06:05.738Z,33.87
2023-05-01T11:11:24.104Z,34.42
2023-05-01T11:16:42.553Z,33.34
2023-05-01T11:21:45.993Z,33.23
2023-05-01T11:26:49.927Z,33.56
2023-05-01T11:31:53.233Z,33.38
2023-05-01T11:36:56.344Z,33.46
2023-05-01T11:42:09.910Z,33.66
2023-05-01T11:47:13.925Z,33.49
2023-05-01T11:52:17.239Z,32.86
2023-05-01T11:57:20.553Z,33.07
2023-05-01T12:02:23.939Z,33.21
2023-05-01T12:07:27.081Z,32.48
2023-05-01T12:12:30.494Z,32.35
2023-05-01T12:17:33.826Z,32.30
2023-05-01T12:22:49.325Z,32.39
2023-05-01T12:27:52.880Z,31.69
2023-05-01T12:32:59.209Z,31.53
2023-05-01T12:38:12.889Z,31.29
2023-05-01T12:43:16.997Z,31.31
2023-05-01T12:48:20.983Z,31.05
2023-05-01T12:53:25.957Z,30.59
2023-05-01T12:58:37.238Z,30.57
2023-05-01T13:03:44.988Z,30.79
2023-05-01T13:08:48.209Z,30.16
2023-05-01T13:13:51.319Z,30.82
2023-05-01T13:18:54.425Z,31.52
2023-05-01T13:23:59.800Z,32.00
2023-05-01T13:29:05.890Z,31.89
2023-05-01T13:34:08.976Z,31.75
2023-05-01T13:39:21.330Z,31.98
2023-05-01T13:44:24.507Z,33.02
2023-05-01T13:49:27.724Z,33.07
2023-05-01T13:54:30.729Z,32.99
2023-05-01T13:59:45.738Z,33.55
2023-05-01T14:04:49.441Z,33.26
2023-05-01T14:10:00.020Z,33.05
2023-05-01T14:15:05.325Z,33.36
2023-05-01T14:20:08.884Z,33.42
2023-05-01T14:25:25.431Z,33.33
2023-05-01T14:30:38.483Z,32.86
2023-05-01T14:35:50.066Z,32.84
2023-05-01T14:40:53.091Z,32.64
2023-05-01T14:45:56.356Z,32.81
2023-05-01T14:51:00.449Z,32.53
2023-05-01T14:56:03.649Z,32.84
2023-05-01T15:01:06.665Z,32.76
2023-05-01T15:06:10.298Z,32.54
2023-05-01T15:11:14.434Z,32.70
2023-05-01T15:16:17.572Z,32.75
2023-05-01T15:21:20.634Z,32.55
2023-05-01T15:26:23.643Z,32.50
2023-05-01T15:31:26.676Z,32.05
2023-05-01T15:36:29.749Z,32.17
2023-05-01T15:41:32.756Z,32.41
2023-05-01T15:46:36.683Z,32.27
2023-05-01T15:51:39.795Z,32.48
2023-05-01T15:56:42.805Z,32.41
2023-05-01T16:01:45.909Z,32.53
2023-05-01T16:06:49.256Z,32.39
2023-05-01T16:11:52.345Z,32.83
2023-05-01T16:16:55.368Z,33.04
2023-05-01T16:21:58.749Z,32.34
2023-05-01T16:27:02.227Z,32.47
2023-05-01T16:32:06.234Z,33.02
2023-05-01T16:37:09.202Z,32.78
2023-05-01T16:42:13.409Z,33.27
2023-05-01T16:47:17.130Z,33.64
2023-05-01T16:52:20.369Z,33.91
2023-05-01T16:57:23.473Z,34.29
2023-05-01T17:02:26.669Z,34.74
2023-05-01T17:07:29.815Z,35.34
2023-05-01T17:12:32.907Z,35.69
2023-05-01T17:17:37.269Z,36.20
2023-05-01T17:22:40.459Z,36.60
2023-05-01T17:27:43.664Z,37.10
2023-05-01T17:32:46.790Z,37.69
2023-05-01T17:37:50.187Z,38.24
2023-05-01T17:42:53.303Z,38.60
2023-05-01T17:47:56.369Z,39.01
2023-05-01T17:52:59.422Z,39.51
2023-05-01T17:58:02.523Z,39.79
2023-05-01T18:03:06.521Z,39.76
2023-05-01T18:08:09.660Z,40.48
2023-05-01T18:13:13.183Z,41.13
2023-05-01T18:18:16.410Z,41.68
2023-05-01T18:23:19.608Z,41.67
2023-05-01T18:28:23.018Z,41.79
2023-05-01T18:33:26.193Z,41.65
2023-05-01T18:38:29.353Z,42.03
2023-05-01T18:43:32.554Z,42.64
2023-05-01T18:48:36.297Z,43.05
2023-05-01T18:53:39.595Z,43.37
2023-05-01T18:58:42.811Z,46.26
2023-05-01T19:03:46.232Z,44.56
2023-05-01T19:08:49.322Z,45.64
2023-05-01T19:13:52.952Z,46.68
2023-05-01T19:18:56.260Z,45.81
2023-05-01T19:23:59.364Z,46.11
2023-05-01T19:29:02.374Z,46.55
2023-05-01T19:34:05.486Z,47.74
2023-05-01T19:39:08.490Z,49.74
2023-05-01T19:44:11.702Z,50.41
2023-05-01T19:49:14.708Z,50.45
2023-05-01T19:54:17.641Z,50.14
2023-05-01T19:59:20.936Z,49.92
2023-05-01T20:04:24.499Z,50.24
2023-05-01T20:09:27.671Z,50.72
2023-05-01T20:14:33.466Z,50.98
2023-05-01T20:19:39.724Z,50.76
2023-05-01T20:24:43.132Z,51.05
2023-05-01T20:29:46.132Z,51.82
2023-05-01T20:34:49.349Z,53.20
2023-05-01T20:39:52.350Z,54.02
2023-05-01T20:44:55.457Z,54.92
2023-05-01T20:49:59.003Z,55.09
2023-05-01T20:55:03.636Z,55.28
2023-05-01T21:00:08.287Z,55.18
2023-05-01T21:05:11.795Z,54.89
2023-05-01T21:10:16.734Z,55.24
2023-05-01T21:15:20.058Z,55.77
2023-05-01T21:20:34.323Z,56.38
2023-05-01T21:25:37.538Z,56.83
2023-05-01T21:30:41.148Z,57.30
2023-05-01T21:35:46.923Z,57.03
2023-05-01T21:40:49.940Z,57.54
2023-05-01T21:45:53.247Z,57.74
2023-05-01T21:50:56.967Z,58.16
2023-05-01T21:56:00.692Z,58.51
2023-05-01T22:01:03.941Z,58.53
2023-05-01T22:06:07.459Z,58.68
2023-05-01T22:11:11.046Z,58.89
2023-05-01T22:16:14.293Z,59.11
2023-05-01T22:21:17.577Z,59.30
2023-05-01T22:26:20.774Z,59.70
2023-05-01T22:31:23.920Z,59.95
2023-05-01T22:36:26.999Z,60.19
2023-05-01T22:41:30.207Z,60.28
2023-05-01T22:46:33.375Z,60.71
2023-05-01T22:51:37.538Z,60.88
2023-05-01T22:56:40.557Z,61.18
2023-05-01T23:01:44.630Z,61.32
2023-05-01T23:06:47.727Z,61.77
2023-05-01T23:11:50.907Z,62.29
2023-05-01T23:16:54.120Z,61.16
2023-05-01T23:22:08.775Z,59.15
2023-05-01T23:27:12.733Z,59.49
2023-05-01T23:32:25.103Z,59.61
2023-05-01T23:37:28.364Z,59.43
2023-05-01T23:42:31.885Z,59.30
2023-05-01T23:47:35.834Z,59.10
2023-05-01T23:52:39.025Z,59.13
2023-05-01T23:57:42.350Z,58.93
